createdAt,value
2023-03-26T03:40:35.831Z,7.72
2023-03-26T03:41:36.850Z,7.75
2023-03-26T03:42:36.815Z,7.74
2023-03-26T03:43:36.829Z,7.74
2023-03-26T03:52:10.462Z,7.77
2023-03-26T03:53:11.398Z,7.75
2023-03-26T03:54:11.416Z,7.77
2023-03-26T03:55:11.344Z,7.77
2023-03-26T03:56:11.312Z,7.77
2023-03-26T03:57:11.353Z,7.75
2023-03-26T03:58:11.290Z,7.75
2023-03-26T03:59:11.273Z,7.78
2023-03-26T04:00:11.476Z,7.75
2023-03-26T04:01:11.263Z,7.78
2023-03-26T04:02:11.276Z,7.77
2023-03-26T04:03:11.335Z,7.75
2023-03-26T04:04:11.324Z,7.81
2023-03-26T04:05:11.248Z,7.81
2023-03-26T04:06:11.219Z,7.84
2023-03-26T04:07:11.193Z,7.82
2023-03-26T04:08:11.193Z,7.84
2023-03-26T04:09:11.198Z,7.84
2023-03-26T04:10:11.225Z,7.81
2023-03-26T04:11:11.165Z,7.82
2023-03-26T04:12:11.156Z,7.81
2023-03-26T04:13:11.126Z,7.78
2023-03-26T04:14:11.135Z,7.79
2023-03-26T04:15:11.097Z,7.77
2023-03-26T04:16:11.180Z,7.77
2023-03-26T04:17:11.090Z,7.77
2023-03-26T04:18:11.067Z,7.75
2023-03-26T04:19:11.084Z,7.72
2023-03-26T04:20:11.055Z,7.72
2023-03-26T04:21:11.052Z,7.71
2023-03-26T04:22:11.046Z,7.69
2023-03-26T04:23:11.040Z,7.72
2023-03-26T04:24:11.010Z,7.71
2023-03-26T04:25:11.010Z,7.71
2023-03-26T04:26:10.988Z,7.67
2023-03-26T04:27:11.010Z,7.67
2023-03-26T04:28:10.975Z,7.71
2023-03-26T04:29:11.002Z,7.67
2023-03-26T04:30:10.947Z,7.69
2023-03-26T04:31:11.026Z,7.75
2023-03-26T04:32:10.952Z,7.72
2023-03-26T04:33:10.923Z,7.72
2023-03-26T04:34:10.903Z,7.75
2023-03-26T04:35:10.921Z,7.74
2023-03-26T04:36:10.952Z,7.72
2023-03-26T04:37:10.916Z,7.77
2023-03-26T04:38:10.881Z,7.79
2023-03-26T04:39:10.909Z,7.77
2023-03-26T04:40:10.850Z,7.74
2023-03-26T04:41:10.831Z,7.72
2023-03-26T04:42:10.833Z,7.72
2023-03-26T04:43:10.842Z,7.69
2023-03-26T04:44:10.814Z,7.71
2023-03-26T04:45:10.843Z,7.71
2023-03-26T04:46:10.790Z,7.72
2023-03-26T04:47:10.786Z,7.71
2023-03-26T04:48:10.806Z,7.67
2023-03-26T04:49:10.772Z,7.66
2023-03-26T04:50:10.751Z,7.63
2023-03-26T04:51:10.755Z,7.62
2023-03-26T04:52:10.672Z,7.59
2023-03-26T04:53:10.682Z,7.60
2023-03-26T04:54:10.652Z,7.56
2023-03-26T04:55:10.632Z,7.55
2023-03-26T04:56:10.634Z,7.53
2023-03-26T04:57:10.718Z,7.56
2023-03-26T06:27:14.075Z,7.96
2023-03-26T06:28:15.164Z,7.97
2023-03-26T07:43:08.882Z,8.53
2023-03-26T07:44:09.555Z,8.53
2023-03-26T07:50:16.068Z,8.60
2023-03-26T07:51:15.752Z,8.58
2023-03-26T07:52:15.933Z,8.58
2023-03-26T07:53:15.666Z,8.65
2023-03-26T07:54:16.348Z,8.66
2023-03-26T07:55:15.576Z,8.63
2023-03-26T07:56:30.969Z,8.65
2023-03-26T07:57:15.736Z,8.68
2023-03-26T07:59:59.203Z,8.73
2023-03-26T08:01:00.233Z,8.75
2023-03-26T08:02:00.408Z,8.76
2023-03-26T08:03:00.187Z,8.78
2023-03-26T08:04:00.308Z,8.78
2023-03-26T08:05:00.196Z,8.78
2023-03-26T08:06:00.154Z,8.81
2023-03-26T08:07:00.151Z,8.83
2023-03-26T08:25:52.389Z,9.38
2023-03-26T08:26:53.380Z,9.38
2023-03-26T08:27:53.152Z,9.34
2023-03-26T08:28:53.041Z,9.34
2023-03-26T08:35:01.528Z,9.40
2023-03-26T08:36:02.305Z,9.40
2023-03-26T08:37:02.682Z,9.42
2023-03-26T08:49:50.333Z,9.35
2023-03-26T08:50:51.449Z,9.32
2023-03-26T08:51:50.743Z,9.31
2023-03-26T08:52:50.779Z,9.31
2023-03-26T08:57:27.691Z,9.25
2023-03-26T09:29:41.149Z,9.56
2023-03-26T09:30:42.190Z,9.52
2023-03-26T09:31:42.096Z,9.50
2023-03-26T09:34:18.829Z,9.48
2023-03-26T09:35:19.953Z,9.45
2023-03-26T09:36:19.812Z,9.46
2023-03-26T09:37:19.746Z,9.50
2023-03-26T09:38:19.728Z,9.53
2023-03-26T09:39:19.737Z,9.56
2023-03-26T09:40:19.777Z,9.56
2023-03-26T09:41:19.706Z,9.58
2023-03-26T09:42:19.694Z,9.56
2023-03-26T09:43:19.694Z,9.57
2023-03-26T09:44:19.673Z,9.60
2023-03-26T09:45:28.847Z,9.64
2023-03-26T09:46:19.690Z,9.73
2023-03-26T09:47:19.690Z,9.79
2023-03-26T09:48:19.674Z,9.82
2023-03-26T09:49:19.610Z,9.86
2023-03-26T09:50:19.610Z,9.93
2023-03-26T09:51:19.596Z,9.93
2023-03-26T09:53:42.606Z,9.93
2023-03-26T09:54:50.983Z,9.89
2023-03-26T09:55:43.489Z,9.91
2023-03-26T09:56:43.458Z,9.86
2023-03-26T09:57:53.127Z,9.83
2023-03-26T09:59:56.180Z,9.75
2023-03-26T10:00:57.830Z,9.78
2023-03-26T10:01:57.162Z,9.86
2023-03-26T10:02:57.425Z,9.85
2023-03-26T10:03:57.215Z,9.89
2023-03-26T10:04:57.272Z,9.91
2023-03-26T10:17:27.153Z,9.86
2023-03-26T10:41:24.413Z,9.63
2023-03-26T10:44:19.470Z,9.68
2023-03-26T10:45:20.355Z,9.68
2023-03-26T10:46:20.545Z,9.68
2023-03-26T10:49:54.490Z,9.61
2023-03-26T10:50:55.099Z,9.57
2023-03-26T10:51:55.015Z,9.61
2023-03-26T10:52:54.776Z,9.63
2023-03-26T10:53:54.920Z,9.63
2023-03-26T10:55:10.517Z,9.63
2023-03-26T10:55:54.791Z,9.52
2023-03-26T10:57:07.165Z,9.50
2023-03-26T10:57:54.693Z,9.46
2023-03-26T10:59:02.665Z,9.49
2023-03-26T10:59:54.716Z,9.46
2023-03-26T11:00:54.882Z,9.48
2023-03-26T11:01:54.742Z,9.49
2023-03-26T11:02:54.682Z,9.48
2023-03-26T11:03:54.729Z,9.48
2023-03-26T11:04:54.664Z,9.50
2023-03-26T11:05:54.773Z,9.56
2023-03-26T11:06:54.707Z,9.50
2023-03-26T12:04:21.555Z,8.78
2023-03-26T12:04:55.498Z,8.72
2023-03-26T12:05:55.396Z,8.60
2023-03-26T12:06:56.226Z,8.57
2023-03-26T12:07:56.508Z,8.53
2023-03-26T12:08:55.270Z,8.48
2023-03-26T12:09:55.240Z,8.48
2023-03-26T12:10:55.349Z,8.42
2023-03-26T12:11:55.337Z,8.40
2023-03-26T12:12:55.203Z,8.33
2023-03-26T12:13:55.209Z,8.28
2023-03-26T12:14:55.344Z,8.25
2023-03-26T12:15:55.212Z,8.29
2023-03-26T12:16:57.083Z,8.32
2023-03-26T12:17:55.227Z,8.30
2023-03-26T12:18:55.363Z,8.28
2023-03-26T12:19:55.508Z,8.29
2023-03-26T12:20:55.403Z,8.33
2023-03-26T12:21:55.178Z,8.33
2023-03-26T12:22:55.216Z,8.36
2023-03-26T12:23:55.129Z,8.33
2023-03-26T12:24:55.077Z,8.22
2023-03-26T12:25:55.097Z,8.17
2023-03-26T12:26:55.062Z,8.07
2023-03-26T12:27:55.128Z,8.07
2023-03-26T12:28:55.054Z,8.17
2023-03-26T12:29:55.120Z,8.18
2023-03-26T12:30:55.374Z,8.29
2023-03-26T12:31:55.103Z,8.30
2023-03-26T12:32:55.118Z,8.26
2023-03-26T12:33:56.211Z,8.25
2023-03-26T12:34:54.986Z,8.32
2023-03-26T12:35:55.033Z,8.20
2023-03-26T12:36:54.955Z,8.10
2023-03-26T12:37:54.948Z,8.08
2023-03-26T12:39:15.984Z,8.07
2023-03-26T12:40:15.993Z,8.10
2023-03-26T12:40:55.068Z,8.18
2023-03-26T12:44:42.331Z,8.14
2023-03-26T12:44:59.714Z,8.10
2023-03-26T12:45:05.515Z,8.18
2023-03-26T12:47:57.561Z,8.22
2023-03-26T12:48:07.886Z,8.28
2023-03-26T12:48:13.391Z,8.33
2023-03-26T12:49:13.374Z,8.40
2023-03-26T12:50:13.360Z,8.47
2023-03-26T12:51:13.327Z,8.48
2023-03-26T12:52:13.277Z,8.47
2023-03-26T12:53:13.279Z,8.50
2023-03-26T12:54:13.258Z,8.45
2023-03-26T12:55:13.258Z,8.35
2023-03-26T12:56:13.260Z,8.32
2023-03-26T12:57:13.544Z,8.29
2023-03-26T12:58:14.026Z,8.25
2023-03-26T12:59:13.205Z,8.28
2023-03-26T13:00:13.205Z,8.26
2023-03-26T13:01:13.236Z,8.12
2023-03-26T13:02:13.242Z,8.08
2023-03-26T13:03:13.228Z,8.02
2023-03-26T13:04:13.177Z,7.93
2023-03-26T13:05:13.244Z,7.82
2023-03-26T13:06:13.153Z,7.84
2023-03-26T13:07:13.143Z,7.85
2023-03-26T13:08:13.195Z,7.90
2023-03-26T13:09:13.146Z,7.87
2023-03-26T13:10:13.120Z,7.89
2023-03-26T13:11:13.120Z,7.93
2023-03-26T13:12:13.107Z,7.92
2023-03-26T13:13:13.128Z,7.99
2023-03-26T13:14:13.070Z,8.08
2023-03-26T13:15:13.109Z,8.04
2023-03-26T13:16:13.158Z,7.94
2023-03-26T13:19:12.662Z,7.85
2023-03-26T13:20:13.634Z,7.78
2023-03-26T13:21:13.636Z,7.82
2023-03-26T13:22:13.684Z,7.78
2023-03-26T13:23:13.645Z,7.78
2023-03-26T13:24:13.613Z,7.74
2023-03-26T13:25:13.616Z,7.74
2023-03-26T13:26:13.577Z,7.82
2023-03-26T13:27:13.646Z,7.89
2023-03-26T13:28:13.558Z,7.92
2023-03-26T13:29:13.580Z,7.93
2023-03-26T13:30:13.546Z,7.97
2023-03-26T13:31:13.642Z,8.00
2023-03-26T13:32:13.531Z,7.99
2023-03-26T13:33:13.527Z,8.03
2023-03-26T13:34:13.576Z,7.97
2023-03-26T13:35:13.551Z,7.96
2023-03-26T13:36:23.208Z,7.93
2023-03-26T13:37:13.496Z,7.87
2023-03-26T13:38:13.478Z,7.82
2023-03-26T13:39:13.506Z,7.81
2023-03-26T13:40:13.453Z,7.78
2023-03-26T13:41:13.457Z,7.77
2023-03-26T13:42:13.415Z,7.79
2023-03-26T13:43:13.427Z,7.82
2023-03-26T13:44:13.536Z,7.81
2023-03-26T13:45:13.405Z,7.78
2023-03-26T13:46:13.386Z,7.74
2023-03-26T13:47:13.402Z,7.74
2023-03-26T13:48:13.380Z,7.69
2023-03-26T13:49:13.354Z,7.72
2023-03-26T13:50:13.366Z,7.78
2023-03-26T13:51:13.318Z,7.72
2023-03-26T13:52:13.319Z,7.71
2023-03-26T13:53:13.332Z,7.74
2023-03-26T13:54:13.277Z,7.72
2023-03-26T13:55:13.281Z,7.77
2023-03-26T13:56:13.270Z,7.78
2023-03-26T13:57:13.295Z,7.63
2023-03-26T13:58:13.239Z,7.69
2023-03-26T13:59:13.230Z,7.69
2023-03-26T14:00:13.247Z,7.63
2023-03-26T14:01:13.247Z,7.63
2023-03-26T14:02:13.193Z,7.62
2023-03-26T14:03:13.200Z,7.60
2023-03-26T14:04:13.183Z,7.59
2023-03-26T14:05:13.180Z,7.55
2023-03-26T14:06:13.208Z,7.56
2023-03-26T14:07:13.141Z,7.52
2023-03-26T14:08:13.150Z,7.55
2023-03-26T14:09:13.121Z,7.53
2023-03-26T14:10:13.143Z,7.49
2023-03-26T14:11:13.109Z,7.50
2023-03-26T14:12:21.168Z,7.53
2023-03-26T14:13:13.070Z,7.58
2023-03-26T14:14:13.075Z,7.55
2023-03-26T14:15:13.085Z,7.53
2023-03-26T14:16:13.162Z,7.44
2023-03-26T14:17:13.076Z,7.35
2023-03-26T14:18:13.059Z,7.35
2023-03-26T14:19:13.056Z,7.35
2023-03-26T14:20:13.020Z,7.42
2023-03-26T14:21:13.079Z,7.34
2023-03-26T14:22:12.998Z,7.27
2023-03-26T14:23:12.996Z,7.29
2023-03-26T14:24:13.069Z,7.26
2023-03-26T14:25:13.008Z,7.19
2023-03-26T14:26:12.987Z,7.16
2023-03-26T14:27:12.943Z,7.07
2023-03-26T14:28:12.929Z,7.12
2023-03-26T14:29:12.976Z,7.05
2023-03-26T14:30:12.930Z,7.08
2023-03-26T14:31:12.941Z,7.13
2023-03-26T14:32:12.893Z,7.22
2023-03-26T14:33:12.906Z,7.13
2023-03-26T14:34:12.884Z,7.12
2023-03-26T14:35:12.906Z,7.12
2023-03-26T14:36:12.880Z,7.08
2023-03-26T14:37:12.871Z,7.07
2023-03-26T14:38:12.881Z,7.12
2023-03-26T14:39:12.844Z,7.16
2023-03-26T14:40:12.884Z,7.20
2023-03-26T14:41:12.835Z,7.17
2023-03-26T14:42:12.825Z,7.19
2023-03-26T14:43:12.838Z,7.19
2023-03-26T14:44:12.856Z,7.24
2023-03-26T14:45:12.833Z,7.34
2023-03-26T14:46:12.999Z,7.42
2023-03-26T14:47:14.586Z,7.49
2023-03-26T14:48:13.138Z,7.42
2023-03-26T14:49:13.179Z,7.40
2023-03-26T14:50:24.048Z,7.47
2023-03-26T14:51:12.942Z,7.38
2023-03-26T14:52:12.834Z,7.41
2023-03-26T14:53:12.767Z,7.34
2023-03-26T14:54:13.444Z,7.49
2023-03-26T14:57:51.004Z,7.45
2023-03-26T15:06:17.500Z,7.38
2023-03-26T15:07:25.360Z,7.29
2023-03-26T15:08:18.440Z,7.35
2023-03-26T15:09:18.457Z,7.31
2023-03-26T15:14:54.289Z,7.32
2023-03-26T15:20:22.004Z,7.60
2023-03-26T15:21:23.038Z,7.60
2023-03-26T15:22:24.546Z,7.63
2023-03-26T15:23:22.901Z,7.62
2023-03-26T15:26:25.590Z,7.63
2023-03-26T15:27:25.807Z,7.60
2023-03-26T15:28:25.536Z,7.62
2023-03-26T15:29:25.566Z,7.67
2023-03-26T15:32:03.761Z,7.81
2023-03-26T15:37:26.517Z,8.00
2023-03-26T15:38:27.392Z,7.90
2023-03-26T15:39:27.332Z,7.85
2023-03-26T15:40:27.418Z,7.75
2023-03-26T15:41:28.225Z,7.77
2023-03-26T15:42:27.471Z,7.82
2023-03-26T15:43:37.952Z,7.79
2023-03-26T15:44:27.303Z,7.82
2023-03-26T15:53:58.482Z,7.77
2023-03-26T15:54:59.596Z,7.67
2023-03-26T15:55:59.470Z,7.69
2023-03-26T15:56:59.291Z,7.55
2023-03-26T15:57:59.233Z,7.56
2023-03-26T16:02:28.534Z,7.55
2023-03-26T16:03:40.354Z,7.58
2023-03-26T16:04:37.326Z,7.60
2023-03-26T16:05:32.239Z,7.69
2023-03-26T16:06:29.490Z,7.69
2023-03-26T16:07:29.569Z,7.58
2023-03-26T16:12:11.932Z,7.52
2023-03-26T16:13:12.807Z,7.45
2023-03-26T16:14:45.622Z,7.35
2023-03-26T16:15:13.078Z,7.26
2023-03-26T16:16:12.608Z,7.19
2023-03-26T16:17:12.522Z,7.19
2023-03-26T16:23:12.361Z,7.29
2023-03-26T16:24:13.347Z,7.24
2023-03-26T16:25:27.318Z,7.37
2023-03-26T16:26:13.129Z,7.35
2023-03-26T16:27:13.137Z,7.47
2023-03-26T16:33:17.226Z,7.05
2023-03-26T16:34:18.106Z,7.05
2023-03-26T16:35:17.989Z,7.09
2023-03-26T16:36:17.852Z,7.08
2023-03-26T16:46:03.732Z,7.22
2023-03-26T16:47:04.426Z,7.19
2023-03-26T16:48:04.257Z,7.16
2023-03-26T16:49:04.284Z,7.16
2023-03-26T16:50:09.058Z,7.20
2023-03-26T16:51:04.186Z,7.31
2023-03-26T16:52:04.240Z,7.32
2023-03-26T16:53:04.103Z,7.23
2023-03-26T16:54:04.189Z,7.29
2023-03-26T16:55:04.098Z,7.27
2023-03-26T16:56:04.283Z,7.19
2023-03-26T16:57:04.249Z,7.22
2023-03-26T16:58:04.477Z,7.17
2023-03-26T16:59:04.061Z,7.22
2023-03-26T17:00:06.014Z,7.16
2023-03-26T17:03:14.344Z,7.01
2023-03-26T17:04:15.296Z,7.19
2023-03-26T17:05:15.148Z,7.16
2023-03-26T17:11:56.074Z,6.95
2023-03-26T17:12:57.024Z,6.84
2023-03-26T17:13:59.925Z,6.83
2023-03-26T17:14:56.839Z,6.84
2023-03-26T17:15:56.825Z,6.77
2023-03-26T17:16:56.818Z,6.66
2023-03-26T18:01:05.985Z,6.48
2023-03-26T18:02:07.072Z,6.46
2023-03-26T18:03:07.034Z,6.58
2023-03-26T18:09:06.374Z,6.44
2023-03-26T18:10:08.902Z,6.48
2023-03-26T18:14:18.456Z,6.53
2023-03-26T18:16:40.574Z,6.63
2023-03-26T18:17:41.435Z,6.53
2023-03-26T18:18:41.347Z,6.40
2023-03-26T18:19:50.894Z,6.40
2023-03-26T18:46:45.015Z,6.21
2023-03-26T18:47:46.118Z,6.11
2023-03-26T18:48:45.945Z,6.14
2023-03-26T18:49:45.942Z,6.19
2023-03-26T18:50:45.908Z,6.19
2023-03-26T18:51:56.188Z,6.10
2023-03-26T18:52:45.927Z,5.98
2023-03-26T18:53:45.928Z,5.96
2023-03-26T18:54:45.866Z,6.01
2023-03-26T18:55:45.906Z,5.92
2023-03-26T18:56:45.909Z,5.92
2023-03-26T18:57:45.892Z,6.09
2023-03-26T18:58:45.837Z,6.04
2023-03-26T18:59:45.829Z,5.95
2023-03-26T19:00:45.813Z,5.77
2023-03-26T19:01:47.405Z,5.73
2023-03-26T19:02:45.833Z,5.71
2023-03-26T19:03:45.902Z,5.63
2023-03-26T19:04:47.131Z,5.60
2023-03-26T19:05:45.786Z,5.59
2023-03-26T19:06:45.762Z,5.63
2023-03-26T19:07:45.764Z,5.56
2023-03-26T19:08:46.436Z,5.55
2023-03-26T19:09:45.716Z,5.64
2023-03-26T19:10:45.807Z,5.63
2023-03-26T19:11:45.715Z,5.67
2023-03-26T19:12:45.776Z,5.67
2023-03-26T19:13:45.696Z,5.59
2023-03-26T19:14:45.738Z,5.48
2023-03-26T19:15:45.852Z,5.34
2023-03-26T19:16:45.687Z,5.27
2023-03-26T19:17:45.772Z,5.30
2023-03-26T19:18:45.632Z,5.34
2023-03-26T19:19:45.699Z,5.37
2023-03-26T19:20:45.631Z,5.34
2023-03-26T19:21:45.643Z,5.41
2023-03-26T19:22:45.582Z,5.38
2023-03-26T19:23:45.597Z,5.43
2023-03-26T19:24:45.650Z,5.30
2023-03-26T19:25:45.564Z,5.25
2023-03-26T19:26:45.608Z,5.32
2023-03-26T19:27:45.842Z,5.35
2023-03-26T19:36:27.784Z,4.83
2023-03-26T19:37:28.734Z,4.76
2023-03-26T19:38:28.698Z,4.70
2023-03-26T19:55:00.006Z,4.61
2023-03-26T19:55:58.432Z,4.62
2023-03-26T19:56:58.791Z,4.70
2023-03-26T19:57:58.459Z,4.84
2023-03-26T19:58:58.477Z,4.98
2023-03-26T19:59:58.433Z,5.10
2023-03-26T20:00:58.889Z,5.07
2023-03-26T20:01:58.470Z,4.75
2023-03-26T20:02:58.532Z,4.72
2023-03-26T20:03:58.534Z,4.64
2023-03-26T20:04:58.408Z,4.61
2023-03-26T20:05:58.442Z,4.50
2023-03-26T20:06:58.369Z,4.43
2023-03-26T20:07:58.402Z,4.32
2023-03-26T20:08:58.375Z,4.26
2023-03-26T20:09:58.379Z,4.34
2023-03-26T20:10:59.183Z,4.43
2023-03-26T20:11:58.340Z,4.40
2023-03-26T20:12:58.333Z,4.36
2023-03-26T20:13:58.314Z,4.43
2023-03-26T20:14:58.288Z,4.58
2023-03-26T20:16:05.886Z,4.54
2023-03-26T20:16:58.312Z,4.65
2023-03-26T20:17:58.303Z,4.76
2023-03-26T20:18:58.248Z,4.76
2023-03-26T20:19:58.284Z,4.80
2023-03-26T20:20:58.472Z,4.67
2023-03-26T20:21:58.141Z,4.58
2023-03-26T20:22:58.203Z,4.59
2023-03-26T20:23:58.208Z,4.61
2023-03-26T20:24:58.182Z,4.58
2023-03-26T20:25:58.347Z,4.64
2023-03-26T20:26:58.195Z,4.52
2023-03-26T20:27:58.149Z,4.46
2023-03-26T20:28:58.122Z,4.46
2023-03-26T20:29:58.180Z,4.39
2023-03-26T20:30:58.347Z,4.47
2023-03-26T20:31:58.853Z,4.34
2023-03-26T20:33:11.879Z,4.33
2023-03-26T20:33:58.093Z,4.36
2023-03-26T20:34:58.243Z,4.36
2023-03-26T20:35:58.917Z,4.39
2023-03-26T20:37:01.338Z,4.43
2023-03-26T20:37:58.026Z,4.46
2023-03-26T20:38:58.067Z,4.39
2023-03-26T20:39:58.041Z,4.29
2023-03-26T20:40:58.222Z,4.19
2023-03-26T20:41:57.995Z,4.19
2023-03-26T20:42:57.984Z,4.24
2023-03-26T20:43:57.988Z,4.29
2023-03-26T20:44:57.981Z,4.40
2023-03-26T20:45:58.218Z,4.21
2023-03-26T20:46:58.014Z,4.12
2023-03-26T20:47:57.967Z,4.08
2023-03-26T20:48:57.997Z,4.04
2023-03-26T20:49:57.911Z,4.19
2023-03-26T20:50:57.894Z,4.19
2023-03-26T20:51:58.058Z,4.18
2023-03-26T20:52:57.872Z,4.32
2023-03-26T20:53:58.494Z,4.26
2023-03-26T20:54:57.959Z,4.14
2023-03-26T20:55:57.809Z,4.15
2023-03-26T20:56:57.852Z,4.16
2023-03-26T20:57:57.818Z,4.15
2023-03-26T20:59:09.857Z,4.08
2023-03-26T20:59:57.869Z,4.16
2023-03-26T21:00:58.005Z,4.04
2023-03-26T21:01:58.173Z,3.96
2023-03-26T21:03:11.488Z,4.00
2023-03-26T21:03:57.770Z,4.08
2023-03-26T21:04:57.772Z,4.04
2023-03-26T21:05:57.823Z,3.98
2023-03-26T21:07:07.025Z,3.94
2023-03-26T21:07:57.724Z,3.89
2023-03-26T21:08:57.757Z,3.94
2023-03-26T21:09:57.745Z,3.85
2023-03-26T21:10:57.837Z,3.85
2023-03-26T21:11:57.693Z,3.79
2023-03-26T21:12:57.674Z,3.78
2023-03-26T21:13:57.661Z,3.79
2023-03-26T21:14:57.671Z,3.85
2023-03-26T21:15:59.431Z,3.88
2023-03-26T21:16:57.713Z,3.78
2023-03-26T21:17:57.680Z,3.72
2023-03-26T21:18:57.607Z,3.68
2023-03-26T21:19:57.624Z,3.68
2023-03-26T21:20:58.648Z,3.58
2023-03-26T21:21:57.614Z,3.61
2023-03-26T21:22:57.613Z,3.61
2023-03-26T21:23:57.611Z,3.57
2023-03-26T21:24:57.542Z,3.44
2023-03-26T21:25:57.543Z,3.50
2023-03-26T21:26:57.550Z,3.49
2023-03-26T21:27:57.543Z,3.44
2023-03-26T21:28:57.547Z,3.46
2023-03-26T21:29:57.518Z,3.47
2023-03-26T21:30:57.688Z,3.46
2023-03-26T21:31:57.547Z,3.57
2023-03-26T21:32:57.529Z,3.58
2023-03-26T21:33:57.474Z,3.61
2023-03-26T21:34:59.325Z,3.67
2023-03-26T21:35:57.520Z,3.68
2023-03-26T21:36:57.429Z,3.75
2023-03-26T21:37:57.480Z,3.75
2023-03-26T21:38:57.438Z,3.68
2023-03-26T21:39:57.403Z,3.67
2023-03-26T21:40:58.873Z,3.70
2023-03-26T21:42:04.512Z,3.61
2023-03-26T21:42:57.392Z,3.61
2023-03-26T21:43:57.371Z,3.62
2023-03-26T21:44:57.369Z,3.57
2023-03-26T21:45:57.397Z,3.44
2023-03-26T21:46:57.333Z,3.49
2023-03-26T21:47:57.379Z,3.53
2023-03-26T21:48:57.318Z,3.67
2023-03-26T21:49:57.338Z,3.68
2023-03-26T21:50:57.446Z,3.75
2023-03-26T21:51:57.270Z,3.67
2023-03-26T21:52:57.309Z,3.64
2023-03-26T21:53:57.275Z,3.65
2023-03-26T21:54:57.257Z,3.62
2023-03-26T21:55:57.232Z,3.64
2023-03-26T21:56:57.304Z,3.65
2023-03-26T21:57:57.196Z,3.75
2023-03-26T21:58:57.208Z,3.75
2023-03-26T21:59:57.193Z,3.62
2023-03-26T22:00:57.516Z,3.57
2023-03-26T22:01:57.182Z,3.57
2023-03-26T22:02:57.318Z,3.50
2023-03-26T22:03:57.188Z,3.50
2023-03-26T22:04:57.145Z,3.57
2023-03-26T22:05:57.139Z,3.68
2023-03-26T22:06:57.155Z,3.76
2023-03-26T22:07:57.119Z,3.67
2023-03-26T22:08:57.119Z,3.68
2023-03-26T22:09:57.087Z,3.76
2023-03-26T22:10:57.389Z,3.79
2023-03-26T22:11:57.083Z,3.67
2023-03-26T22:12:57.078Z,3.65
2023-03-26T22:13:57.058Z,3.53
2023-03-26T22:15:06.112Z,3.50
2023-03-26T22:15:57.130Z,3.44
2023-03-26T22:16:57.098Z,3.42
2023-03-26T22:17:57.182Z,3.42
2023-03-26T22:18:57.023Z,3.50
2023-03-26T22:19:57.012Z,3.44
2023-03-26T22:20:57.083Z,3.34
2023-03-26T22:21:56.983Z,3.24
2023-03-26T22:22:56.996Z,3.30
2023-03-26T22:23:56.982Z,3.31
2023-03-26T22:24:56.952Z,3.33
2023-03-26T22:25:56.945Z,3.34
2023-03-26T22:26:56.932Z,3.46
2023-03-26T22:27:56.943Z,3.47
2023-03-26T22:28:56.906Z,3.43
2023-03-26T22:29:56.933Z,3.27
2023-03-26T22:30:57.056Z,3.18
2023-03-26T22:31:56.932Z,3.20
2023-03-26T22:32:57.048Z,3.18
2023-03-26T22:33:56.874Z,3.06
2023-03-26T22:34:56.862Z,3.09
2023-03-26T22:35:56.885Z,3.13
2023-03-26T22:36:56.819Z,3.12
2023-03-26T22:38:00.836Z,3.03
2023-03-26T22:38:56.851Z,3.12
2023-03-26T22:39:56.801Z,3.16
2023-03-26T22:40:57.146Z,3.13
2023-03-26T22:41:56.781Z,2.97
2023-03-26T22:42:56.790Z,3.00
2023-03-26T22:43:58.025Z,3.12
2023-03-26T22:44:56.756Z,3.27
2023-03-26T22:45:56.794Z,3.34
2023-03-26T22:46:56.725Z,3.27
2023-03-26T22:48:03.239Z,3.21
2023-03-26T22:48:56.722Z,3.16
2023-03-26T22:49:56.685Z,3.18
2023-03-26T22:50:57.187Z,3.07
2023-03-26T22:51:56.709Z,3.06
2023-03-26T22:52:56.693Z,3.21
2023-03-26T22:53:56.653Z,3.16
2023-03-26T22:54:56.651Z,3.13
2023-03-26T22:55:56.631Z,3.13
2023-03-26T22:56:56.666Z,3.30
2023-03-26T22:57:56.628Z,3.30
2023-03-26T22:58:56.608Z,3.34
2023-03-26T22:59:56.595Z,3.27
2023-03-26T23:00:56.726Z,3.20
2023-03-26T23:01:56.706Z,3.00
2023-03-26T23:02:56.621Z,3.03
2023-03-26T23:03:56.673Z,3.00
2023-03-26T23:04:56.573Z,2.98
2023-03-26T23:05:56.518Z,3.03
2023-03-26T23:06:56.549Z,3.05
2023-03-26T23:07:56.515Z,3.24
2023-03-26T23:08:56.514Z,3.18
2023-03-26T23:09:56.507Z,3.10
2023-03-26T23:10:56.646Z,3.10
2023-03-26T23:11:56.437Z,3.03
2023-03-26T23:12:56.458Z,2.98
2023-03-26T23:13:56.459Z,2.94
2023-03-26T23:14:56.464Z,2.85
2023-03-26T23:15:56.482Z,2.94
2023-03-26T23:16:56.462Z,3.07
2023-03-26T23:17:56.439Z,2.94
2023-03-26T23:18:56.399Z,2.94
2023-03-26T23:19:56.393Z,2.89
2023-03-26T23:20:56.563Z,2.85
2023-03-26T23:21:56.385Z,2.81
2023-03-26T23:22:56.393Z,2.81
2023-03-26T23:23:56.356Z,2.85
2023-03-26T23:24:56.345Z,2.81
2023-03-26T23:25:56.339Z,2.76
2023-03-26T23:26:56.340Z,2.71
2023-03-26T23:28:10.583Z,2.71
2023-03-26T23:28:56.423Z,2.74
2023-03-26T23:29:56.324Z,2.79
2023-03-26T23:30:56.439Z,2.63
2023-03-26T23:31:56.350Z,2.66
2023-03-26T23:32:56.317Z,2.64
2023-03-26T23:33:56.278Z,2.82
2023-03-26T23:34:56.226Z,2.82
2023-03-26T23:35:56.297Z,2.81
2023-03-26T23:36:56.219Z,2.81
2023-03-26T23:37:56.229Z,2.77
2023-03-26T23:38:56.204Z,2.82
2023-03-26T23:39:56.226Z,2.77
2023-03-26T23:40:57.519Z,2.87
2023-03-26T23:41:56.175Z,2.92
2023-03-26T23:42:56.152Z,2.97
2023-03-26T23:43:56.162Z,2.91
2023-03-26T23:44:56.142Z,2.82
2023-03-26T23:45:56.169Z,2.73
2023-03-26T23:46:56.146Z,2.71
2023-03-26T23:47:56.138Z,2.73
2023-03-26T23:48:56.142Z,2.74
2023-03-26T23:49:56.115Z,2.70
2023-03-26T23:51:04.092Z,2.73
2023-03-26T23:51:56.081Z,2.79
2023-03-26T23:52:56.065Z,2.71
2023-03-26T23:53:56.078Z,2.71
2023-03-26T23:54:56.042Z,2.67
2023-03-26T23:55:56.034Z,2.71
2023-03-26T23:56:56.053Z,2.64
2023-03-26T23:57:56.033Z,2.63
2023-03-26T23:58:55.997Z,2.59
2023-03-26T23:59:56.008Z,2.53
